sensor_id;sensor_type;location;lat;lon;timestamp;pressure;altitude;pressure_sealevel;temperature;humidity
40013;BME280;37387;42.672;23.334;2023-07-31T00:05:36;940.9;;;21.8;100.0
40013;BME280;37387;42.672;23.334;2023-07-31T00:08:36;940.9;;;21.9;100.0
40013;BME280;37387;42.672;23.334;2023-07-31T00:09:36;940.9;;;21.8;100.0
40013;BME280;37387;42.672;23.334;2023-07-31T00:10:36;940.9;;;21.7;100.0
40013;BME280;37387;42.672;23.334;2023-07-31T00:14:36;940.9;;;21.8;100.0
40013;BME280;37387;42.672;23.334;2023-07-31T00:15:36;940.9;;;21.7;100.0
40013;BME280;37387;42.672;23.334;2023-07-31T00:20:36;941.0;;;21.6;100.0
40013;BME280;37387;42.672;23.334;2023-07-31T00:23:36;940.9;;;21.7;100.0
40013;BME280;37387;42.672;23.334;2023-07-31T00:27:36;940.9;;;21.8;100.0
40013;BME280;37387;42.672;23.334;2023-07-31T00:28:36;940.9;;;21.7;100.0
40013;BME280;37387;42.672;23.334;2023-07-31T00:29:35;940.8;;;21.6;100.0
40013;BME280;37387;42.672;23.334;2023-07-31T00:30:35;940.8;;;21.5;100.0
40013;BME280;37387;42.672;23.334;2023-07-31T00:31:36;940.8;;;21.6;100.0
40013;BME280;37387;42.672;23.334;2023-07-31T00:34:36;940.7;;;21.5;100.0
40013;BME280;37387;42.672;23.334;2023-07-31T00:39:36;940.5;;;21.3;100.0
40013;BME280;37387;42.672;23.334;2023-07-31T00:42:36;940.5;;;21.2;100.0
40013;BME280;37387;42.672;23.334;2023-07-31T00:44:36;940.5;;;21.1;100.0
40013;BME280;37387;42.672;23.334;2023-07-31T00:46:36;940.6;;;21.0;100.0
40013;BME280;37387;42.672;23.334;2023-07-31T00:50:36;940.6;;;20.9;100.0
40013;BME280;37387;42.672;23.334;2023-07-31T00:51:36;940.6;;;20.8;100.0
40013;BME280;37387;42.672;23.334;2023-07-31T00:52:36;940.6;;;20.7;100.0
40013;BME280;37387;42.672;23.334;2023-07-31T00:55:36;940.6;;;20.8;100.0
40013;BME280;37387;42.672;23.334;2023-07-31T00:57:36;940.6;;;20.7;100.0
40013;BME280;37387;42.672;23.334;2023-07-31T00:58:36;940.6;;;20.9;100.0
40013;BME280;37387;42.672;23.334;2023-07-31T01:00:36;940.6;;;20.8;100.0
40013;BME280;37387;42.672;23.334;2023-07-31T01:01:36;940.6;;;20.9;100.0
40013;BME280;37387;42.672;23.334;2023-07-31T01:10:37;940.5;;;20.7;100.0
40013;BME280;37387;42.672;23.334;2023-07-31T01:15:36;940.5;;;20.6;100.0
40013;BME280;37387;42.672;23.334;2023-07-31T01:19:36;940.4;;;20.7;100.0
40013;BME280;37387;42.672;23.334;2023-07-31T01:20:36;940.4;;;20.6;100.0
40013;BME280;37387;42.672;23.334;2023-07-31T01:25:44;940.4;;;20.4;100.0
40013;BME280;37387;42.672;23.334;2023-07-31T01:35:36;940.3;;;20.3;100.0
40013;BME280;37387;42.672;23.334;2023-07-31T01:41:36;940.4;;;20.4;100.0
40013;BME280;37387;42.672;23.334;2023-07-31T01:44:36;940.3;;;20.5;100.0
40013;BME280;37387;42.672;23.334;2023-07-31T01:45:36;940.3;;;20.4;100.0
40013;BME280;37387;42.672;23.334;2023-07-31T01:47:36;940.3;;;20.3;100.0
40013;BME280;37387;42.672;23.334;2023-07-31T01:49:36;940.3;;;20.4;100.0
40013;BME280;37387;42.672;23.334;2023-07-31T01:50:36;940.3;;;20.3;100.0
40013;BME280;37387;42.672;23.334;2023-07-31T01:59:36;940.4;;;20.2;100.0
40013;BME280;37387;42.672;23.334;2023-07-31T02:05:36;940.4;;;20.3;100.0
40013;BME280;37387;42.672;23.334;2023-07-31T02:06:36;940.4;;;20.2;100.0
40013;BME280;37387;42.672;23.334;2023-07-31T02:09:36;940.4;;;20.1;100.0
40013;BME280;37387;42.672;23.334;2023-07-31T02:14:36;940.5;;;20.2;100.0
40013;BME280;37387;42.672;23.334;2023-07-31T02:17:36;940.5;;;20.1;100.0
40013;BME280;37387;42.672;23.334;2023-07-31T02:18:36;940.5;;;20.2;100.0
40013;BME280;37387;42.672;23.334;2023-07-31T02:19:37;940.5;;;20.1;100.0
40013;BME280;37387;42.672;23.334;2023-07-31T02:25:36;940.5;;;20.2;100.0
40013;BME280;37387;42.672;23.334;2023-07-31T02:27:36;940.5;;;20.3;100.0
40013;BME280;37387;42.672;23.334;2023-07-31T02:28:36;940.5;;;20.2;100.0
40013;BME280;37387;42.672;23.334;2023-07-31T02:30:36;940.5;;;20.3;100.0
40013;BME280;37387;42.672;23.334;2023-07-31T02:33:36;940.5;;;20.2;100.0
40013;BME280;37387;42.672;23.334;2023-07-31T02:35:36;940.5;;;20.3;100.0
40013;BME280;37387;42.672;23.334;2023-07-31T02:36:36;940.5;;;20.2;100.0
40013;BME280;37387;42.672;23.334;2023-07-31T02:44:36;940.4;;;20.3;100.0
40013;BME280;37387;42.672;23.334;2023-07-31T02:45:36;940.5;;;20.4;100.0
40013;BME280;37387;42.672;23.334;2023-07-31T02:48:36;940.5;;;20.5;100.0
40013;BME280;37387;42.672;23.334;2023-07-31T02:54:36;940.6;;;20.6;100.0
40013;BME280;37387;42.672;23.334;2023-07-31T02:59:36;940.7;;;20.7;100.0
40013;BME280;37387;42.672;23.334;2023-07-31T03:02:36;940.8;;;20.6;100.0
40013;BME280;37387;42.672;23.334;2023-07-31T03:03:36;940.8;;;20.7;100.0
40013;BME280;37387;42.672;23.334;2023-07-31T03:05:36;940.8;;;20.9;100.0
40013;BME280;37387;42.672;23.334;2023-07-31T03:06:36;940.8;;;20.8;100.0
40013;BME280;37387;42.672;23.334;2023-07-31T03:10:36;940.9;;;20.9;100.0
40013;BME280;37387;42.672;23.334;2023-07-31T03:11:36;940.9;;;20.8;100.0
40013;BME280;37387;42.672;23.334;2023-07-31T03:12:36;940.9;;;20.9;100.0
40013;BME280;37387;42.672;23.334;2023-07-31T03:13:36;940.9;;;21.0;100.0
40013;BME280;37387;42.672;23.334;2023-07-31T03:18:36;940.9;;;21.1;100.0
40013;BME280;37387;42.672;23.334;2023-07-31T03:20:36;940.9;;;21.0;100.0
40013;BME280;37387;42.672;23.334;2023-07-31T03:22:36;941.0;;;21.1;100.0
40013;BME280;37387;42.672;23.334;2023-07-31T03:25:36;940.9;;;20.9;100.0
40013;BME280;37387;42.672;23.334;2023-07-31T03:31:36;940.9;;;21.0;100.0
40013;BME280;37387;42.672;23.334;2023-07-31T03:32:36;940.9;;;20.9;100.0
40013;BME280;37387;42.672;23.334;2023-07-31T03:39:36;941.0;;;21.0;100.0
40013;BME280;37387;42.672;23.334;2023-07-31T03:43:36;941.0;;;20.9;100.0
40013;BME280;37387;42.672;23.334;2023-07-31T03:45:36;941.1;;;21.0;100.0
40013;BME280;37387;42.672;23.334;2023-07-31T03:47:36;941.0;;;21.1;100.0
40013;BME280;37387;42.672;23.334;2023-07-31T03:50:36;941.1;;;21.2;100.0
40013;BME280;37387;42.672;23.334;2023-07-31T03:51:36;941.1;;;21.1;100.0
40013;BME280;37387;42.672;23.334;2023-07-31T03:55:36;941.1;;;21.0;100.0
40013;BME280;37387;42.672;23.334;2023-07-31T03:57:36;941.1;;;21.1;100.0
40013;BME280;37387;42.672;23.334;2023-07-31T03:58:36;941.1;;;21.2;100.0
40013;BME280;37387;42.672;23.334;2023-07-31T04:01:36;941.2;;;21.3;100.0
40013;BME280;37387;42.672;23.334;2023-07-31T04:02:36;941.2;;;21.2;100.0
40013;BME280;37387;42.672;23.334;2023-07-31T04:04:36;941.2;;;21.3;100.0
40013;BME280;37387;42.672;23.334;2023-07-31T04:07:36;941.2;;;21.2;100.0
40013;BME280;37387;42.672;23.334;2023-07-31T04:11:36;941.2;;;21.1;100.0
40013;BME280;37387;42.672;23.334;2023-07-31T04:13:36;941.2;;;21.2;100.0
40013;BME280;37387;42.672;23.334;2023-07-31T04:17:36;941.2;;;21.1;100.0
40013;BME280;37387;42.672;23.334;2023-07-31T04:19:36;941.3;;;21.0;100.0
40013;BME280;37387;42.672;23.334;2023-07-31T04:24:36;941.4;;;21.1;100.0
40013;BME280;37387;42.672;23.334;2023-07-31T04:25:35;941.3;;;21.2;100.0
40013;BME280;37387;42.672;23.334;2023-07-31T04:26:35;941.3;;;21.3;100.0
40013;BME280;37387;42.672;23.334;2023-07-31T04:28:37;941.3;;;21.2;100.0
40013;BME280;37387;42.672;23.334;2023-07-31T04:31:35;941.3;;;21.1;100.0
40013;BME280;37387;42.672;23.334;2023-07-31T04:32:36;941.4;;;21.2;100.0
40013;BME280;37387;42.672;23.334;2023-07-31T04:34:35;941.3;;;21.3;100.0
40013;BME280;37387;42.672;23.334;2023-07-31T04:35:36;941.3;;;21.4;100.0
40013;BME280;37387;42.672;23.334;2023-07-31T04:43:36;941.4;;;21.5;100.0
40013;BME280;37387;42.672;23.334;2023-07-31T04:45:36;941.4;;;21.6;100.0
40013;BME280;37387;42.672;23.334;2023-07-31T04:46:36;941.4;;;21.7;100.0
40013;BME280;37387;42.672;23.334;2023-07-31T04:47:36;941.4;;;21.6;100.0
40013;BME280;37387;42.672;23.334;2023-07-31T04:48:36;941.4;;;21.7;100.0
40013;BME280;37387;42.672;23.334;2023-07-31T04:50:36;941.4;;;21.6;100.0
40013;BME280;37387;42.672;23.334;2023-07-31T04:52:36;941.4;;;21.7;100.0
40013;BME280;37387;42.672;23.334;2023-07-31T04:53:36;941.4;;;21.9;100.0
40013;BME280;37387;42.672;23.334;2023-07-31T04:54:36;941.4;;;22.0;100.0
40013;BME280;37387;42.672;23.334;2023-07-31T04:55:36;941.4;;;22.2;100.0
40013;BME280;37387;42.672;23.334;2023-07-31T04:56:36;941.4;;;22.4;100.0
40013;BME280;37387;42.672;23.334;2023-07-31T04:57:36;941.4;;;22.6;100.0
40013;BME280;37387;42.672;23.334;2023-07-31T04:58:36;941.4;;;22.7;100.0
40013;BME280;37387;42.672;23.334;2023-07-31T04:59:36;941.5;;;22.8;100.0
40013;BME280;37387;42.672;23.334;2023-07-31T05:00:36;941.5;;;23.1;100.0
40013;BME280;37387;42.672;23.334;2023-07-31T05:01:36;941.5;;;23.4;100.0
40013;BME280;37387;42.672;23.334;2023-07-31T05:04:36;941.5;;;23.6;100.0
40013;BME280;37387;42.672;23.334;2023-07-31T05:05:36;941.5;;;23.8;100.0
40013;BME280;37387;42.672;23.334;2023-07-31T05:06:36;941.5;;;23.9;100.0
40013;BME280;37387;42.672;23.334;2023-07-31T05:07:36;941.5;;;24.1;100.0
40013;BME280;37387;42.672;23.334;2023-07-31T05:08:36;941.5;;;25.0;100.0
40013;BME280;37387;42.672;23.334;2023-07-31T05:09:36;941.4;;;25.6;100.0
40013;BME280;37387;42.672;23.334;2023-07-31T05:10:36;941.6;;;26.2;100.0
40013;BME280;37387;42.672;23.334;2023-07-31T05:11:36;941.6;;;26.9;93.9
40013;BME280;37387;42.672;23.334;2023-07-31T05:12:36;941.6;;;27.4;87.9
40013;BME280;37387;42.672;23.334;2023-07-31T05:13:36;941.6;;;27.2;82.9
40013;BME280;37387;42.672;23.334;2023-07-31T05:14:36;941.5;;;26.8;81.6
40013;BME280;37387;42.672;23.334;2023-07-31T05:15:36;941.6;;;27.1;85.2
40013;BME280;37387;42.672;23.334;2023-07-31T05:16:36;941.5;;;26.8;83.1
40013;BME280;37387;42.672;23.334;2023-07-31T05:17:36;941.5;;;27.0;85.6
40013;BME280;37387;42.672;23.334;2023-07-31T05:18:36;941.6;;;27.1;83.7
40013;BME280;37387;42.672;23.334;2023-07-31T05:19:36;941.6;;;26.8;82.3
40013;BME280;37387;42.672;23.334;2023-07-31T05:20:36;941.5;;;26.6;83.4
40013;BME280;37387;42.672;23.334;2023-07-31T05:21:36;941.5;;;26.7;84.3
40013;BME280;37387;42.672;23.334;2023-07-31T05:22:36;941.5;;;26.8;84.5
40013;BME280;37387;42.672;23.334;2023-07-31T05:23:36;941.5;;;27.1;83.2
40013;BME280;37387;42.672;23.334;2023-07-31T05:24:36;941.5;;;27.3;81.5
40013;BME280;37387;42.672;23.334;2023-07-31T05:25:36;941.5;;;27.7;79.2
40013;BME280;37387;42.672;23.334;2023-07-31T05:26:36;941.5;;;27.8;77.3
40013;BME280;37387;42.672;23.334;2023-07-31T05:27:36;941.5;;;28.0;76.0
40013;BME280;37387;42.672;23.334;2023-07-31T05:28:36;941.5;;;28.2;73.0
40013;BME280;37387;42.672;23.334;2023-07-31T05:29:36;941.5;;;27.8;73.0
40013;BME280;37387;42.672;23.334;2023-07-31T05:30:36;941.5;;;27.4;77.5
40013;BME280;37387;42.672;23.334;2023-07-31T05:31:36;941.5;;;26.6;77.5
40013;BME280;37387;42.672;23.334;2023-07-31T05:32:36;941.5;;;27.0;84.0
40013;BME280;37387;42.672;23.334;2023-07-31T05:33:36;941.5;;;26.8;80.8
40013;BME280;37387;42.672;23.334;2023-07-31T05:34:36;941.5;;;27.3;81.4
40013;BME280;37387;42.672;23.334;2023-07-31T05:35:36;941.5;;;27.5;77.6
40013;BME280;37387;42.672;23.334;2023-07-31T05:36:36;941.6;;;27.7;76.6
40013;BME280;37387;42.672;23.334;2023-07-31T05:37:36;941.6;;;27.3;74.8
40013;BME280;37387;42.672;23.334;2023-07-31T05:38:36;941.5;;;26.8;76.2
40013;BME280;37387;42.672;23.334;2023-07-31T05:40:36;941.5;;;26.6;79.3
40013;BME280;37387;42.672;23.334;2023-07-31T05:42:36;941.4;;;27.2;80.7
40013;BME280;37387;42.672;23.334;2023-07-31T05:43:36;941.5;;;27.6;73.9
40013;BME280;37387;42.672;23.334;2023-07-31T05:44:36;941.5;;;28.0;73.9
40013;BME280;37387;42.672;23.334;2023-07-31T05:45:36;941.5;;;28.1;72.4
40013;BME280;37387;42.672;23.334;2023-07-31T05:48:36;941.5;;;28.0;69.4
40013;BME280;37387;42.672;23.334;2023-07-31T05:49:36;941.5;;;27.6;70.7
40013;BME280;37387;42.672;23.334;2023-07-31T05:50:36;941.5;;;26.8;70.7
40013;BME280;37387;42.672;23.334;2023-07-31T05:51:36;941.5;;;26.2;75.6
40013;BME280;37387;42.672;23.334;2023-07-31T05:52:36;941.5;;;25.8;78.6
40013;BME280;37387;42.672;23.334;2023-07-31T05:53:36;941.4;;;25.2;82.8
40013;BME280;37387;42.672;23.334;2023-07-31T05:54:36;941.4;;;24.7;88.0
40013;BME280;37387;42.672;23.334;2023-07-31T05:55:36;941.4;;;24.6;91.9
40013;BME280;37387;42.672;23.334;2023-07-31T05:56:36;941.4;;;24.4;94.1
40013;BME280;37387;42.672;23.334;2023-07-31T05:58:36;941.4;;;24.5;96.2
40013;BME280;37387;42.672;23.334;2023-07-31T05:59:36;941.5;;;24.4;95.6
40013;BME280;37387;42.672;23.334;2023-07-31T06:00:36;941.4;;;24.1;98.0
40013;BME280;37387;42.672;23.334;2023-07-31T06:01:36;941.5;;;24.0;100.0
40013;BME280;37387;42.672;23.334;2023-07-31T06:02:36;941.4;;;23.9;100.0
40013;BME280;37387;42.672;23.334;2023-07-31T06:04:36;941.6;;;23.6;100.0
40013;BME280;37387;42.672;23.334;2023-07-31T06:05:36;941.6;;;23.5;100.0
40013;BME280;37387;42.672;23.334;2023-07-31T06:07:36;941.6;;;23.6;100.0
40013;BME280;37387;42.672;23.334;2023-07-31T06:08:36;941.6;;;23.8;100.0
40013;BME280;37387;42.672;23.334;2023-07-31T06:09:36;941.5;;;23.7;100.0
40013;BME280;37387;42.672;23.334;2023-07-31T06:10:36;941.5;;;24.0;100.0
40013;BME280;37387;42.672;23.334;2023-07-31T06:11:36;941.6;;;24.1;95.0
40013;BME280;37387;42.672;23.334;2023-07-31T06:12:36;941.6;;;24.9;95.0
40013;BME280;37387;42.672;23.334;2023-07-31T06:13:36;941.6;;;25.7;89.2
40013;BME280;37387;42.672;23.334;2023-07-31T06:14:36;941.6;;;26.3;82.0
40013;BME280;37387;42.672;23.334;2023-07-31T06:15:36;941.6;;;26.9;76.8
40013;BME280;37387;42.672;23.334;2023-07-31T06:17:36;941.7;;;27.7;72.0
40013;BME280;37387;42.672;23.334;2023-07-31T06:18:36;941.6;;;28.5;67.4
40013;BME280;37387;42.672;23.334;2023-07-31T06:19:36;941.7;;;29.1;63.6
40013;BME280;37387;42.672;23.334;2023-07-31T06:20:36;941.6;;;29.3;61.1
40013;BME280;37387;42.672;23.334;2023-07-31T06:21:36;941.7;;;30.0;59.2
40013;BME280;37387;42.672;23.334;2023-07-31T06:22:36;941.7;;;30.2;57.2
40013;BME280;37387;42.672;23.334;2023-07-31T06:23:36;941.6;;;29.7;55.3
40013;BME280;37387;42.672;23.334;2023-07-31T06:24:36;941.6;;;29.6;56.6
40013;BME280;37387;42.672;23.334;2023-07-31T06:25:36;941.7;;;29.8;56.6
40013;BME280;37387;42.672;23.334;2023-07-31T06:26:36;941.6;;;29.2;56.1
40013;BME280;37387;42.672;23.334;2023-07-31T06:28:36;941.7;;;28.8;57.1
40013;BME280;37387;42.672;23.334;2023-07-31T06:29:36;941.6;;;28.0;58.3
40013;BME280;37387;42.672;23.334;2023-07-31T06:30:36;941.6;;;27.8;61.3
40013;BME280;37387;42.672;23.334;2023-07-31T06:31:36;941.7;;;27.7;62.4
40013;BME280;37387;42.672;23.334;2023-07-31T06:32:36;941.7;;;27.0;63.8
40013;BME280;37387;42.672;23.334;2023-07-31T06:33:36;941.6;;;26.9;66.4
40013;BME280;37387;42.672;23.334;2023-07-31T06:34:36;941.6;;;26.6;66.9
40013;BME280;37387;42.672;23.334;2023-07-31T06:35:36;941.6;;;26.5;68.8
40013;BME280;37387;42.672;23.334;2023-07-31T06:36:36;941.7;;;26.2;69.1
40013;BME280;37387;42.672;23.334;2023-07-31T06:37:36;941.6;;;26.1;71.1
40013;BME280;37387;42.672;23.334;2023-07-31T06:38:36;941.6;;;25.9;71.5
40013;BME280;37387;42.672;23.334;2023-07-31T06:40:36;941.7;;;26.2;74.3
40013;BME280;37387;42.672;23.334;2023-07-31T06:41:36;941.6;;;26.8;69.6
40013;BME280;37387;42.672;23.334;2023-07-31T06:42:36;941.7;;;26.4;69.6
40013;BME280;37387;42.672;23.334;2023-07-31T06:43:36;941.7;;;26.0;71.1
40013;BME280;37387;42.672;23.334;2023-07-31T06:45:36;941.6;;;26.3;74.2
40013;BME280;37387;42.672;23.334;2023-07-31T06:46:36;941.6;;;26.4;72.2
40013;BME280;37387;42.672;23.334;2023-07-31T06:47:36;941.4;;;26.3;71.8
40013;BME280;37387;42.672;23.334;2023-07-31T06:48:36;941.6;;;26.8;72.5
40013;BME280;37387;42.672;23.334;2023-07-31T06:49:36;941.6;;;26.3;69.8
40013;BME280;37387;42.672;23.334;2023-07-31T06:50:36;941.7;;;26.2;72.7
40013;BME280;37387;42.672;23.334;2023-07-31T06:51:36;941.8;;;27.2;72.7
40013;BME280;37387;42.672;23.334;2023-07-31T06:52:36;941.8;;;26.9;67.5
40013;BME280;37387;42.672;23.334;2023-07-31T06:53:36;941.7;;;26.8;67.5
40013;BME280;37387;42.672;23.334;2023-07-31T06:55:36;941.7;;;27.0;68.7
40013;BME280;37387;42.672;23.334;2023-07-31T06:56:36;941.7;;;27.1;67.7
40013;BME280;37387;42.672;23.334;2023-07-31T06:57:36;941.8;;;27.0;67.6
40013;BME280;37387;42.672;23.334;2023-07-31T06:58:36;941.8;;;27.2;68.0
40013;BME280;37387;42.672;23.334;2023-07-31T06:59:36;941.8;;;27.4;66.5
40013;BME280;37387;42.672;23.334;2023-07-31T07:01:36;941.7;;;28.0;65.4
40013;BME280;37387;42.672;23.334;2023-07-31T07:03:36;941.7;;;28.5;61.9
40013;BME280;37387;42.672;23.334;2023-07-31T07:04:36;941.8;;;28.9;60.0
40013;BME280;37387;42.672;23.334;2023-07-31T07:05:36;941.7;;;29.5;58.3
40013;BME280;37387;42.672;23.334;2023-07-31T07:06:36;941.8;;;29.6;56.2
40013;BME280;37387;42.672;23.334;2023-07-31T07:07:36;941.8;;;29.4;55.7
40013;BME280;37387;42.672;23.334;2023-07-31T07:08:36;941.8;;;29.3;56.4
40013;BME280;37387;42.672;23.334;2023-07-31T07:09:36;941.7;;;29.8;56.7
40013;BME280;37387;42.672;23.334;2023-07-31T07:10:36;941.7;;;30.0;55.3
40013;BME280;37387;42.672;23.334;2023-07-31T07:11:36;941.7;;;29.9;54.0
40013;BME280;37387;42.672;23.334;2023-07-31T07:12:36;941.7;;;29.6;54.3
40013;BME280;37387;42.672;23.334;2023-07-31T07:13:36;941.7;;;29.3;55.6
40013;BME280;37387;42.672;23.334;2023-07-31T07:14:36;941.7;;;30.0;56.9
40013;BME280;37387;42.672;23.334;2023-07-31T07:16:36;941.7;;;29.2;54.5
40013;BME280;37387;42.672;23.334;2023-07-31T07:17:36;941.7;;;28.9;56.3
40013;BME280;37387;42.672;23.334;2023-07-31T07:18:36;941.8;;;28.4;57.5
40013;BME280;37387;42.672;23.334;2023-07-31T07:19:36;941.7;;;28.1;59.2
40013;BME280;37387;42.672;23.334;2023-07-31T07:20:36;941.8;;;28.2;60.2
40013;BME280;37387;42.672;23.334;2023-07-31T07:21:36;941.8;;;27.9;60.2
40013;BME280;37387;42.672;23.334;2023-07-31T07:23:36;941.7;;;28.3;60.4
40013;BME280;37387;42.672;23.334;2023-07-31T07:26:36;941.7;;;28.4;58.4
40013;BME280;37387;42.672;23.334;2023-07-31T07:27:36;941.7;;;28.8;58.1
40013;BME280;37387;42.672;23.334;2023-07-31T07:28:36;941.7;;;29.2;57.6
40013;BME280;37387;42.672;23.334;2023-07-31T07:29:37;941.7;;;29.6;54.4
40013;BME280;37387;42.672;23.334;2023-07-31T07:30:36;941.7;;;30.0;54.4
40013;BME280;37387;42.672;23.334;2023-07-31T07:31:36;941.7;;;29.9;53.7
40013;BME280;37387;42.672;23.334;2023-07-31T07:32:36;941.6;;;30.2;52.8
40013;BME280;37387;42.672;23.334;2023-07-31T07:33:36;941.6;;;30.6;52.8
40013;BME280;37387;42.672;23.334;2023-07-31T07:34:36;941.6;;;30.9;51.7
40013;BME280;37387;42.672;23.334;2023-07-31T07:35:36;941.6;;;30.5;50.7
40013;BME280;37387;42.672;23.334;2023-07-31T07:36:36;941.6;;;30.2;51.6
40013;BME280;37387;42.672;23.334;2023-07-31T07:37:36;941.5;;;30.5;52.3
40013;BME280;37387;42.672;23.334;2023-07-31T07:38:36;941.6;;;29.5;51.6
40013;BME280;37387;42.672;23.334;2023-07-31T07:39:36;941.6;;;28.4;53.6
40013;BME280;37387;42.672;23.334;2023-07-31T07:40:38;941.6;;;27.8;57.4
40013;BME280;37387;42.672;23.334;2023-07-31T07:41:36;941.7;;;27.7;60.6
40013;BME280;37387;42.672;23.334;2023-07-31T07:42:36;941.7;;;28.1;61.2
40013;BME280;37387;42.672;23.334;2023-07-31T07:43:36;941.7;;;28.5;60.1
40013;BME280;37387;42.672;23.334;2023-07-31T07:44:36;941.6;;;28.8;58.6
40013;BME280;37387;42.672;23.334;2023-07-31T07:45:36;941.7;;;29.5;57.0
40013;BME280;37387;42.672;23.334;2023-07-31T07:46:36;941.7;;;29.7;54.7
40013;BME280;37387;42.672;23.334;2023-07-31T07:47:37;941.7;;;29.4;54.0
40013;BME280;37387;42.672;23.334;2023-07-31T07:48:36;941.7;;;29.6;55.0
40013;BME280;37387;42.672;23.334;2023-07-31T07:49:36;941.7;;;30.3;54.8
40013;BME280;37387;42.672;23.334;2023-07-31T07:50:37;941.6;;;30.5;53.1
40013;BME280;37387;42.672;23.334;2023-07-31T07:51:36;941.7;;;30.2;51.9
40013;BME280;37387;42.672;23.334;2023-07-31T07:52:36;941.7;;;30.4;52.7
40013;BME280;37387;42.672;23.334;2023-07-31T07:53:36;941.7;;;30.5;51.9
40013;BME280;37387;42.672;23.334;2023-07-31T07:54:36;941.7;;;30.8;50.7
40013;BME280;37387;42.672;23.334;2023-07-31T07:55:36;941.7;;;31.0;50.7
40013;BME280;37387;42.672;23.334;2023-07-31T07:56:36;941.8;;;31.8;49.7
40013;BME280;37387;42.672;23.334;2023-07-31T07:57:36;941.8;;;31.9;47.9
40013;BME280;37387;42.672;23.334;2023-07-31T07:58:36;941.8;;;31.6;47.3
40013;BME280;37387;42.672;23.334;2023-07-31T08:00:36;941.8;;;30.9;47.1
40013;BME280;37387;42.672;23.334;2023-07-31T08:01:36;941.8;;;30.6;47.1
40013;BME280;37387;42.672;23.334;2023-07-31T08:02:36;941.8;;;30.8;47.4
40013;BME280;37387;42.672;23.334;2023-07-31T08:03:36;941.8;;;31.1;47.3
40013;BME280;37387;42.672;23.334;2023-07-31T08:04:36;941.8;;;30.6;46.7
40013;BME280;37387;42.672;23.334;2023-07-31T08:05:36;941.8;;;30.0;47.8
40013;BME280;37387;42.672;23.334;2023-07-31T08:06:36;941.7;;;30.7;49.7
40013;BME280;37387;42.672;23.334;2023-07-31T08:07:36;941.8;;;31.2;49.0
40013;BME280;37387;42.672;23.334;2023-07-31T08:08:36;941.8;;;31.7;47.6
40013;BME280;37387;42.672;23.334;2023-07-31T08:09:36;941.8;;;32.7;47.2
40013;BME280;37387;42.672;23.334;2023-07-31T08:10:36;941.8;;;32.5;45.0
40013;BME280;37387;42.672;23.334;2023-07-31T08:11:36;941.9;;;32.2;45.2
40013;BME280;37387;42.672;23.334;2023-07-31T08:14:36;941.8;;;31.8;45.6
40013;BME280;37387;42.672;23.334;2023-07-31T08:15:36;941.8;;;31.6;46.3
40013;BME280;37387;42.672;23.334;2023-07-31T08:16:36;941.8;;;31.9;46.8
40013;BME280;37387;42.672;23.334;2023-07-31T08:17:36;941.9;;;32.2;46.3
40013;BME280;37387;42.672;23.334;2023-07-31T08:18:36;941.9;;;31.8;46.1
40013;BME280;37387;42.672;23.334;2023-07-31T08:19:36;941.8;;;30.9;46.1
40013;BME280;37387;42.672;23.334;2023-07-31T08:20:36;941.8;;;31.0;48.4
40013;BME280;37387;42.672;23.334;2023-07-31T08:21:36;941.8;;;30.9;48.6
40013;BME280;37387;42.672;23.334;2023-07-31T08:22:36;941.8;;;30.3;49.0
40013;BME280;37387;42.672;23.334;2023-07-31T08:23:36;941.8;;;29.4;50.5
40013;BME280;37387;42.672;23.334;2023-07-31T08:24:36;941.7;;;29.0;52.5
40013;BME280;37387;42.672;23.334;2023-07-31T08:25:36;941.8;;;28.9;53.3
40013;BME280;37387;42.672;23.334;2023-07-31T08:26:36;941.8;;;28.6;53.7
40013;BME280;37387;42.672;23.334;2023-07-31T08:27:36;941.7;;;29.1;52.8
40013;BME280;37387;42.672;23.334;2023-07-31T08:28:36;941.7;;;29.2;52.8
40013;BME280;37387;42.672;23.334;2023-07-31T08:29:36;941.7;;;29.6;52.5
40013;BME280;37387;42.672;23.334;2023-07-31T08:30:36;941.7;;;29.8;52.1
40013;BME280;37387;42.672;23.334;2023-07-31T08:31:36;941.7;;;30.0;51.4
40013;BME280;37387;42.672;23.334;2023-07-31T08:32:36;941.8;;;30.8;51.3
40013;BME280;37387;42.672;23.334;2023-07-31T08:33:36;941.8;;;30.6;49.7
40013;BME280;37387;42.672;23.334;2023-07-31T08:34:36;941.8;;;30.5;49.3
40013;BME280;37387;42.672;23.334;2023-07-31T08:35:36;941.8;;;30.1;49.3
40013;BME280;37387;42.672;23.334;2023-07-31T08:36:36;941.7;;;29.9;50.8
40013;BME280;37387;42.672;23.334;2023-07-31T08:37:37;941.8;;;29.6;51.0
40013;BME280;37387;42.672;23.334;2023-07-31T08:38:36;941.7;;;30.0;51.6
40013;BME280;37387;42.672;23.334;2023-07-31T08:39:36;941.8;;;30.1;51.0
40013;BME280;37387;42.672;23.334;2023-07-31T08:40:36;941.8;;;30.5;50.4
40013;BME280;37387;42.672;23.334;2023-07-31T08:41:37;941.7;;;30.9;49.2
40013;BME280;37387;42.672;23.334;2023-07-31T08:42:42;941.7;;;30.8;47.4
40013;BME280;37387;42.672;23.334;2023-07-31T08:43:36;941.7;;;30.9;47.4
40013;BME280;37387;42.672;23.334;2023-07-31T08:44:36;941.7;;;31.4;47.5
40013;BME280;37387;42.672;23.334;2023-07-31T08:45:36;941.7;;;31.6;46.3
40013;BME280;37387;42.672;23.334;2023-07-31T08:47:36;941.7;;;32.2;45.9
40013;BME280;37387;42.672;23.334;2023-07-31T08:48:36;941.7;;;32.5;43.6
40013;BME280;37387;42.672;23.334;2023-07-31T08:49:36;941.7;;;32.2;43.6
40013;BME280;37387;42.672;23.334;2023-07-31T08:51:36;941.7;;;32.1;43.9
40013;BME280;37387;42.672;23.334;2023-07-31T08:52:36;941.7;;;32.4;43.4
40013;BME280;37387;42.672;23.334;2023-07-31T08:53:36;941.7;;;31.8;43.4
40013;BME280;37387;42.672;23.334;2023-07-31T08:54:36;941.5;;;31.0;45.1
40013;BME280;37387;42.672;23.334;2023-07-31T08:55:36;941.7;;;30.9;47.1
40013;BME280;37387;42.672;23.334;2023-07-31T08:56:36;941.7;;;30.3;47.4
40013;BME280;37387;42.672;23.334;2023-07-31T08:57:36;941.7;;;29.7;48.3
40013;BME280;37387;42.672;23.334;2023-07-31T08:58:36;941.7;;;29.2;50.0
40013;BME280;37387;42.672;23.334;2023-07-31T08:59:36;941.7;;;28.8;51.9
40013;BME280;37387;42.672;23.334;2023-07-31T09:00:36;941.7;;;28.9;53.0
40013;BME280;37387;42.672;23.334;2023-07-31T09:01:37;941.7;;;29.0;52.7
40013;BME280;37387;42.672;23.334;2023-07-31T09:02:37;941.7;;;29.9;52.6
40013;BME280;37387;42.672;23.334;2023-07-31T09:03:36;941.7;;;30.5;50.5
40013;BME280;37387;42.672;23.334;2023-07-31T09:04:36;941.7;;;30.4;48.9
40013;BME280;37387;42.672;23.334;2023-07-31T09:05:36;941.7;;;30.5;48.2
40013;BME280;37387;42.672;23.334;2023-07-31T09:06:36;941.7;;;30.8;47.9
40013;BME280;37387;42.672;23.334;2023-07-31T09:07:36;941.7;;;31.5;47.0